Time;durP1;ratioP1;P1;durP2;ratioP2;P2;SDS_P1;SDS_P2;PMS_P1;PMS_P2;Temp;Humidity;BMP_temperature;BMP_pressure;BME280_temperature;BME280_humidity;BME280_pressure;Samples;Min_cycle;Max_cycle;Signal;HPM_P1;HPM_P2
2022/05/15 00:02:13;;;;;;;12.60;5.95;;;;;;;13.29;63.64;99950.84;5029197;28;20406;-67
2022/05/15 00:04:38;;;;;;;9.27;5.60;;;;;;;13.26;63.29;99945.69;5029104;28;20029;-67
2022/05/15 00:07:05;;;;;;;8.35;4.97;;;;;;;13.19;63.46;99939.94;5028530;28;20056;-67
2022/05/15 00:09:31;;;;;;;8.00;5.22;;;;;;;13.16;64.04;99944.53;5029222;28;20380;-67
2022/05/15 00:11:56;;;;;;;10.55;4.93;;;;;;;13.08;64.24;99939.69;5028992;28;20088;-67
2022/05/15 00:14:22;;;;;;;12.25;5.63;;;;;;;13.03;63.97;99941.75;5029338;28;20041;-68
2022/05/15 00:16:47;;;;;;;12.80;6.35;;;;;;;13.01;64.30;99941.81;5028271;28;20049;-67
2022/05/15 00:19:12;;;;;;;16.42;6.32;;;;;;;13.06;63.48;99946.84;5029826;28;20030;-67
2022/05/15 00:21:38;;;;;;;9.90;5.63;;;;;;;13.08;63.67;99953.75;5029521;28;20426;-67
2022/05/15 00:24:05;;;;;;;12.57;6.55;;;;;;;13.08;63.86;99945.81;5029421;28;20062;-67
2022/05/15 00:26:31;;;;;;;23.50;13.23;;;;;;;13.04;64.50;99940.78;5027973;28;20064;-66
2022/05/15 00:28:56;;;;;;;21.17;12.18;;;;;;;13.01;65.02;99944.47;5012612;28;20137;-67
2022/05/15 00:31:23;;;;;;;20.35;12.85;;;;;;;13.01;64.07;99941.81;5032019;28;20097;-67
2022/05/15 00:33:49;;;;;;;13.82;7.85;;;;;;;13.02;63.93;99938.25;5034190;28;20030;-68
2022/05/15 00:36:15;;;;;;;16.27;9.60;;;;;;;13.06;63.78;99939.75;5034216;28;20033;-66
2022/05/15 00:38:40;;;;;;;18.85;8.57;;;;;;;13.01;64.11;99938.31;5034700;28;20580;-65
2022/05/15 00:41:07;;;;;;;11.20;6.70;;;;;;;12.94;64.24;99931.66;5034903;28;20034;-65
2022/05/15 00:43:49;;;;;;;16.48;7.32;;;;;;;12.94;64.31;99937.81;5034589;28;20037;-66
2022/05/15 00:46:20;;;;;;;9.20;5.88;;;;;;;12.91;64.56;99935.34;5013502;28;20153;-67
2022/05/15 00:48:46;;;;;;;12.95;6.57;;;;;;;12.83;65.30;99937.56;5033348;28;20184;-68
2022/05/15 00:51:21;;;;;;;11.70;6.43;;;;;;;12.74;65.33;99933.63;5030114;28;20499;-66
2022/05/15 00:53:51;;;;;;;8.80;5.90;;;;;;;12.66;65.37;99938.50;5031588;28;20037;-67
2022/05/15 00:56:21;;;;;;;12.40;6.93;;;;;;;12.58;66.03;99936.28;5032268;28;20095;-67
2022/05/15 00:58:54;;;;;;;8.60;5.82;;;;;;;12.51;66.40;99939.38;5031945;28;20040;-66
2022/05/15 01:01:20;;;;;;;11.77;5.45;;;;;;;12.41;66.73;99936.38;4996754;28;20033;-67
2022/05/15 01:03:46;;;;;;;11.30;7.55;;;;;;;12.32;66.97;99936.84;5032177;28;20639;-67
2022/05/15 01:06:11;;;;;;;11.57;8.43;;;;;;;12.30;66.88;99941.38;5031652;28;20037;-65
2022/05/15 01:08:37;;;;;;;11.18;5.60;;;;;;;12.24;66.95;99940.75;5028623;28;20026;-67
2022/05/15 01:11:10;;;;;;;13.55;6.55;;;;;;;12.21;67.07;99940.09;5012748;28;20085;-67
2022/05/15 01:13:38;;;;;;;11.23;6.80;;;;;;;12.18;67.30;99937.59;4998980;28;20037;-67
2022/05/15 01:16:05;;;;;;;16.85;6.32;;;;;;;12.12;67.72;99941.41;4993294;28;20041;-67
2022/05/15 01:18:32;;;;;;;7.90;5.88;;;;;;;12.06;67.37;99931.19;5012532;28;20719;-66
2022/05/15 01:20:59;;;;;;;13.32;6.90;;;;;;;11.99;68.02;99924.50;5005219;28;20034;-66
2022/05/15 01:23:25;;;;;;;9.35;6.60;;;;;;;11.95;67.63;99933.53;5011787;28;20113;-68
2022/05/15 01:25:51;;;;;;;10.18;6.13;;;;;;;11.99;67.18;99929.81;5012546;28;20113;-67
2022/05/15 01:28:25;;;;;;;12.95;6.97;;;;;;;11.97;67.46;99931.66;5012184;28;20117;-68
2022/05/15 01:30:53;;;;;;;11.40;5.97;;;;;;;11.94;67.78;99930.03;5012065;28;20038;-66
2022/05/15 01:33:22;;;;;;;10.43;5.80;;;;;;;11.95;67.23;99922.97;5012199;28;20044;-66
2022/05/15 01:35:48;;;;;;;10.20;6.03;;;;;;;11.94;67.25;99927.41;5012418;28;20529;-66
2022/05/15 01:38:13;;;;;;;12.70;5.75;;;;;;;11.90;67.67;99935.56;5011992;28;20030;-66
2022/05/15 01:40:40;;;;;;;16.60;6.95;;;;;;;11.83;68.11;99929.69;5012992;28;20399;-66
2022/05/15 01:43:06;;;;;;;14.25;7.63;;;;;;;11.72;68.35;99927.63;5018687;28;20056;-67
2022/05/15 01:45:32;;;;;;;29.52;9.15;;;;;;;11.69;68.81;99929.56;5012407;28;20041;-67
2022/05/15 01:47:57;;;;;;;14.02;6.80;;;;;;;11.61;68.79;99917.59;5011869;28;20045;-67
2022/05/15 01:50:23;;;;;;;14.43;6.25;;;;;;;11.59;68.72;99926.53;5012598;28;20399;-67
2022/05/15 01:52:49;;;;;;;9.35;5.30;;;;;;;11.61;68.44;99920.25;5012136;28;20520;-67
2022/05/15 01:55:14;;;;;;;6.78;4.72;;;;;;;11.60;68.27;99920.34;5012034;28;20045;-67
2022/05/15 01:57:40;;;;;;;7.60;5.22;;;;;;;11.59;68.18;99929.16;5011689;28;20394;-66
2022/05/15 02:00:09;;;;;;;12.90;6.32;;;;;;;11.56;68.36;99927.53;5011927;28;20042;-66
2022/05/15 02:02:35;;;;;;;10.80;6.15;;;;;;;11.50;69.05;99927.88;5010832;28;20030;-65
2022/05/15 02:05:01;;;;;;;13.70;5.47;;;;;;;11.42;69.41;99926.53;5010019;28;20042;-67
2022/05/15 02:07:26;;;;;;;12.90;6.13;;;;;;;11.39;69.31;99933.69;5010714;28;20143;-66
2022/05/15 02:09:51;;;;;;;10.30;5.38;;;;;;;11.41;69.28;99928.34;5011576;28;20038;-66
2022/05/15 02:12:17;;;;;;;9.70;5.32;;;;;;;11.40;69.11;99921.34;5011797;28;20120;-66
2022/05/15 02:14:42;;;;;;;12.50;6.07;;;;;;;11.37;68.78;99914.44;5012186;28;20033;-66
2022/05/15 02:17:07;;;;;;;12.82;5.50;;;;;;;11.36;69.09;99918.00;5011296;28;20033;-68
2022/05/15 02:19:33;;;;;;;11.93;5.28;;;;;;;11.35;68.73;99913.66;5010365;28;20442;-69
2022/05/15 02:21:58;;;;;;;15.73;5.40;;;;;;;11.34;68.98;99921.66;5010752;28;20559;-67
2022/05/15 02:24:24;;;;;;;13.05;5.93;;;;;;;11.30;69.24;99905.13;5010940;28;20096;-68
2022/05/15 02:26:49;;;;;;;16.67;6.30;;;;;;;11.26;69.35;99911.47;5010326;28;20042;-68
2022/05/15 02:29:15;;;;;;;12.77;5.95;;;;;;;11.22;69.83;99909.91;5010201;28;20029;-68
2022/05/15 02:31:40;;;;;;;9.82;5.20;;;;;;;11.18;69.75;99911.88;5011153;28;20033;-69
2022/05/15 02:34:06;;;;;;;10.20;5.25;;;;;;;11.09;69.96;99903.53;5030278;28;20034;-68
2022/05/15 02:36:31;;;;;;;17.05;6.55;;;;;;;11.03;70.23;99906.50;5029289;28;20037;-68
2022/05/15 02:38:56;;;;;;;14.48;6.60;;;;;;;10.93;70.33;99904.31;5030093;28;20037;-68
2022/05/15 02:41:22;;;;;;;6.22;4.60;;;;;;;10.95;70.64;99899.81;5030289;28;20040;-67
2022/05/15 02:43:47;;;;;;;15.90;6.75;;;;;;;10.99;70.43;99908.41;5030318;28;20041;-66
2022/05/15 02:46:13;;;;;;;11.40;6.00;;;;;;;10.92;70.83;99910.50;5029237;28;20033;-68
2022/05/15 02:51:22;;;;;;;10.52;5.43;;;;;;;10.76;71.61;99900.78;5029783;28;20079;-68
2022/05/15 02:53:48;;;;;;;11.75;5.88;;;;;;;10.73;71.79;99901.75;5029531;28;20038;-67
2022/05/15 02:56:23;;;;;;;11.73;6.15;;;;;;;10.74;71.34;99900.84;5029010;28;20042;-68
2022/05/15 02:58:49;;;;;;;;;;;;;;;10.73;71.70;99899.13;5030254;28;20044;-67
2022/05/15 03:01:15;;;;;;;7.43;5.03;;;;;;;10.72;71.52;99894.78;5030380;28;19913;-67
2022/05/15 03:03:41;;;;;;;15.50;6.47;;;;;;;10.76;71.39;99899.00;5029843;28;20044;-67
2022/05/15 03:06:07;;;;;;;13.75;6.82;;;;;;;10.76;71.55;99892.88;5029015;28;20041;-67
2022/05/15 03:08:35;;;;;;;10.50;6.78;;;;;;;10.69;71.94;99892.31;5029720;28;20033;-68
2022/05/15 03:11:00;;;;;;;11.23;6.55;;;;;;;10.61;71.70;99895.31;5015697;28;20037;-68
2022/05/15 03:13:26;;;;;;;13.63;5.65;;;;;;;10.55;72.30;99897.38;5009340;28;20037;-68
2022/05/15 03:15:52;;;;;;;12.82;6.13;;;;;;;10.56;72.23;99888.53;5009266;28;20046;-66
2022/05/15 03:18:18;;;;;;;9.48;4.68;;;;;;;10.65;71.76;99886.31;5009051;28;20034;-68
2022/05/15 03:20:43;;;;;;;13.68;5.53;;;;;;;10.69;71.14;99882.63;5009559;28;20036;-69
2022/05/15 03:23:08;;;;;;;13.13;6.93;;;;;;;10.70;71.26;99886.09;5010101;28;20045;-68
2022/05/15 03:25:35;;;;;;;15.65;7.03;;;;;;;10.60;71.51;99877.78;5009776;28;20054;-69
2022/05/15 03:28:00;;;;;;;15.13;7.57;;;;;;;10.61;71.49;99874.22;5008830;28;20049;-66
2022/05/15 03:30:26;;;;;;;12.98;7.15;;;;;;;10.59;71.84;99872.59;5009628;28;20577;-68
2022/05/15 03:32:52;;;;;;;10.10;6.13;;;;;;;10.65;71.18;99864.38;5009349;28;20034;-68
2022/05/15 03:35:18;;;;;;;14.10;6.65;;;;;;;10.59;71.50;99864.69;5009608;28;20052;-69
2022/05/15 03:37:43;;;;;;;12.60;6.22;;;;;;;10.51;71.91;99865.06;5011267;28;20108;-68
2022/05/15 03:40:15;;;;;;;11.25;6.15;;;;;;;10.47;72.19;99868.75;5009724;28;20057;-68
2022/05/15 03:42:41;;;;;;;12.60;6.35;;;;;;;10.50;71.98;99871.22;5009258;28;20033;-68
2022/05/15 03:45:07;;;;;;;9.82;6.43;;;;;;;10.52;71.39;99877.28;5009603;28;20041;-67
2022/05/15 03:47:34;;;;;;;13.68;6.90;;;;;;;10.49;71.91;99867.75;4990909;28;20487;-68
2022/05/15 03:50:01;;;;;;;9.90;5.88;;;;;;;10.52;71.73;99866.75;5009152;28;20556;-68
2022/05/15 03:52:26;;;;;;;9.55;6.40;;;;;;;10.45;72.19;99875.88;5009252;28;20041;-68
2022/05/15 03:54:52;;;;;;;12.82;7.43;;;;;;;10.36;72.26;99871.91;5009370;28;20042;-68
2022/05/15 03:57:19;;;;;;;18.52;7.70;;;;;;;10.31;72.21;99869.47;5008622;28;20046;-68
2022/05/15 03:59:44;;;;;;;13.13;6.95;;;;;;;10.26;73.42;99874.09;5009162;28;20033;-68
2022/05/15 04:02:10;;;;;;;11.75;6.68;;;;;;;10.26;72.83;99876.72;5009465;28;20033;-67
2022/05/15 04:04:36;;;;;;;10.55;6.38;;;;;;;10.29;72.86;99881.88;5009231;28;20061;-68
2022/05/15 04:07:02;;;;;;;9.60;6.50;;;;;;;10.38;72.73;99885.00;5012380;28;20076;-66
2022/05/15 04:09:29;;;;;;;14.98;7.63;;;;;;;10.35;72.39;99887.78;5013234;28;20038;-67
2022/05/15 04:11:54;;;;;;;9.20;7.05;;;;;;;10.33;72.92;99882.56;5012806;28;20038;-67
2022/05/15 04:14:20;;;;;;;7.90;5.82;;;;;;;10.40;72.50;99880.50;5013016;28;20038;-67
2022/05/15 04:16:45;;;;;;;11.38;6.88;;;;;;;10.44;72.21;99877.66;4978466;28;20083;-67
2022/05/15 04:19:11;;;;;;;8.63;5.93;;;;;;;10.51;71.81;99883.50;5013350;28;20037;-69
2022/05/15 04:21:37;;;;;;;10.07;6.13;;;;;;;10.54;72.00;99888.63;5013138;28;20048;-68
2022/05/15 04:24:09;;;;;;;9.07;5.22;;;;;;;10.58;72.07;99886.69;5012918;28;20120;-68
2022/05/15 04:26:36;;;;;;;18.52;7.82;;;;;;;10.63;71.88;99895.22;5012295;28;20399;-68
2022/05/15 04:29:02;;;;;;;15.88;8.48;;;;;;;10.59;72.47;99893.69;5012321;28;20113;-68
2022/05/15 04:31:28;;;;;;;13.27;7.15;;;;;;;10.61;72.33;99894.44;5012826;28;20122;-68
2022/05/15 04:33:53;;;;;;;13.25;7.60;;;;;;;10.67;72.17;99896.78;5012625;28;20084;-66
2022/05/15 04:36:18;;;;;;;11.02;7.00;;;;;;;10.72;71.90;99892.16;5012074;28;20088;-68
2022/05/15 04:38:43;;;;;;;12.38;6.18;;;;;;;10.77;71.69;99889.31;5012857;28;20055;-67
2022/05/15 04:41:09;;;;;;;9.77;6.35;;;;;;;10.82;71.86;99890.78;5013139;28;20030;-68
2022/05/15 04:43:34;;;;;;;12.43;6.15;;;;;;;10.92;71.74;99886.75;5012568;28;20037;-67
2022/05/15 04:46:03;;;;;;;10.60;6.60;;;;;;;10.99;71.32;99891.75;5011839;28;20030;-68
2022/05/15 04:48:28;;;;;;;12.98;6.78;;;;;;;11.06;71.75;99901.91;5012271;28;20648;-68
2022/05/15 04:50:54;;;;;;;10.95;7.05;;;;;;;11.14;71.54;99896.25;5012639;28;20058;-67
2022/05/15 04:53:19;;;;;;;11.63;7.13;;;;;;;11.26;71.03;99908.00;5012647;28;20041;-68
2022/05/15 04:55:44;;;;;;;14.65;7.50;;;;;;;11.36;70.88;99906.59;5012322;28;20133;-67
2022/05/15 04:58:10;;;;;;;17.58;7.68;;;;;;;11.48;70.69;99905.13;5012112;28;20126;-68
2022/05/15 05:00:35;;;;;;;11.05;6.53;;;;;;;11.61;70.61;99904.41;5012030;28;20395;-68
2022/05/15 05:03:00;;;;;;;10.10;6.78;;;;;;;11.75;69.89;99914.25;5012372;28;20479;-69
2022/05/15 05:05:25;;;;;;;12.27;7.47;;;;;;;11.87;70.26;99904.88;5011974;28;20515;-67
2022/05/15 05:07:51;;;;;;;13.02;6.90;;;;;;;12.01;69.98;99910.28;5011505;28;20440;-69
2022/05/15 05:10:16;;;;;;;8.38;5.88;;;;;;;12.12;69.68;99908.84;5012258;28;20468;-69
2022/05/15 05:12:42;;;;;;;15.05;7.43;;;;;;;12.27;69.17;99907.19;5012412;28;20041;-68
2022/05/15 05:15:09;;;;;;;10.02;6.88;;;;;;;12.42;69.11;99908.97;5011834;28;20399;-68
2022/05/15 05:17:35;;;;;;;12.20;7.45;;;;;;;12.57;68.11;99905.47;5010676;28;20053;-68
2022/05/15 05:20:01;;;;;;;11.65;6.55;;;;;;;12.72;68.15;99902.91;5011932;28;20057;-69
2022/05/15 05:22:26;;;;;;;10.00;6.47;;;;;;;12.86;68.30;99906.50;5011888;28;20034;-68
2022/05/15 05:24:51;;;;;;;10.75;6.35;;;;;;;13.03;67.87;99902.03;5011962;28;20030;-68
2022/05/15 05:27:16;;;;;;;15.43;7.18;;;;;;;13.19;67.29;99896.69;5011199;28;20157;-68
2022/05/15 05:29:42;;;;;;;16.75;8.48;;;;;;;13.30;66.52;99897.81;5011738;28;20104;-69
2022/05/15 05:32:08;;;;;;;12.55;7.32;;;;;;;13.38;65.73;99896.50;5012207;28;20117;-69
2022/05/15 05:34:34;;;;;;;13.48;7.28;;;;;;;13.51;65.52;99900.13;5011649;28;20085;-67
2022/05/15 05:36:59;;;;;;;13.45;5.93;;;;;;;13.65;65.52;99896.66;5010972;28;20682;-70
2022/05/15 05:39:24;;;;;;;14.90;7.32;;;;;;;13.77;64.79;99895.06;5011439;28;20049;-69
2022/05/15 05:41:50;;;;;;;15.82;7.50;;;;;;;13.92;64.09;99896.78;5011438;28;20046;-67
2022/05/15 05:44:15;;;;;;;11.55;7.07;;;;;;;14.04;64.22;99893.38;5013040;28;20411;-68
2022/05/15 05:46:40;;;;;;;10.38;6.75;;;;;;;14.22;63.48;99901.13;5011123;28;20069;-69
2022/05/15 05:49:06;;;;;;;14.07;6.40;;;;;;;14.36;62.75;99895.81;5011276;28;20510;-68
2022/05/15 05:51:31;;;;;;;11.63;6.80;;;;;;;14.44;63.55;99897.97;5011547;28;20084;-69
2022/05/15 05:53:57;;;;;;;8.73;6.18;;;;;;;14.56;62.67;99891.94;5011494;28;20029;-68
2022/05/15 05:56:22;;;;;;;15.02;6.28;;;;;;;14.71;62.75;99906.00;5010934;28;20422;-68
2022/05/15 05:58:48;;;;;;;12.25;6.43;;;;;;;14.85;62.73;99895.34;5011990;28;20116;-67
2022/05/15 06:01:13;;;;;;;11.77;6.45;;;;;;;14.96;62.54;99897.31;5012253;28;20030;-67
2022/05/15 06:06:23;;;;;;;11.20;6.22;;;;;;;15.21;61.47;99899.19;5030138;28;20111;-68
2022/05/15 06:08:48;;;;;;;8.25;6.05;;;;;;;15.32;62.61;99895.81;5031815;28;20053;-69
2022/05/15 06:11:14;;;;;;;13.98;6.38;;;;;;;15.45;61.13;99894.88;5031690;28;20030;-67
2022/05/15 06:13:39;;;;;;;12.57;6.28;;;;;;;15.60;60.86;99893.00;5029399;28;20479;-70
2022/05/15 06:16:06;;;;;;;12.40;5.57;;;;;;;15.72;58.75;99893.13;5011871;28;20033;-68
2022/05/15 06:18:32;;;;;;;13.00;5.65;;;;;;;15.94;59.05;99895.16;5030347;28;22228;-68
2022/05/15 06:20:57;;;;;;;12.65;4.65;;;;;;;16.18;58.76;99887.28;5030394;28;20034;-69
2022/05/15 06:23:23;;;;;;;8.82;5.07;;;;;;;16.45;57.75;99892.44;5013381;28;20056;-69
2022/05/15 06:25:48;;;;;;;9.00;4.32;;;;;;;16.61;58.04;99889.50;5030578;28;20685;-69
2022/05/15 06:28:13;;;;;;;6.22;4.25;;;;;;;16.81;55.29;99888.06;5011641;28;20057;-68
2022/05/15 06:30:39;;;;;;;14.23;5.07;;;;;;;17.01;53.99;99883.97;5031033;28;20034;-68
2022/05/15 06:33:06;;;;;;;13.63;4.97;;;;;;;17.15;53.14;99887.28;5029786;28;20799;-69
2022/05/15 06:35:32;;;;;;;11.48;5.15;;;;;;;17.36;52.74;99894.63;5029279;28;22800;-68
2022/05/15 06:38:05;;;;;;;12.82;5.35;;;;;;;17.41;52.40;99895.13;5011361;28;20029;-68
2022/05/15 06:40:30;;;;;;;7.97;4.20;;;;;;;17.56;51.47;99895.78;5029599;28;20083;-67
2022/05/15 06:42:57;;;;;;;8.70;5.07;;;;;;;17.66;50.77;99887.91;5029385;28;20038;-68
2022/05/15 06:45:23;;;;;;;10.40;4.80;;;;;;;17.67;50.89;99890.47;5029298;28;20494;-68
2022/05/15 06:47:49;;;;;;;13.15;4.40;;;;;;;17.89;50.32;99891.47;5030154;28;20498;-67
2022/05/15 06:50:14;;;;;;;10.18;4.53;;;;;;;18.01;50.98;99877.19;5030175;28;20034;-67
2022/05/15 06:52:40;;;;;;;13.65;5.25;;;;;;;18.31;49.04;99889.06;5030243;28;20037;-68
2022/05/15 06:55:08;;;;;;;14.85;5.63;;;;;;;18.42;49.05;99886.41;5030083;28;20121;-67
2022/05/15 06:57:33;;;;;;;11.05;5.00;;;;;;;18.68;48.67;99892.31;5028826;28;20033;-67
2022/05/15 07:00:03;;;;;;;8.20;4.60;;;;;;;18.85;48.66;99889.13;5029733;28;20037;-67
2022/05/15 07:02:29;;;;;;;18.15;3.97;;;;;;;19.04;47.13;99891.13;5029917;28;20048;-69
2022/05/15 07:04:55;;;;;;;16.10;5.53;;;;;;;19.29;47.10;99881.06;5029522;28;20163;-69
2022/05/15 07:07:20;;;;;;;16.17;5.35;;;;;;;19.50;46.37;99887.28;5028635;28;20061;-69
2022/05/15 07:09:46;;;;;;;11.98;5.60;;;;;;;19.64;45.73;99888.78;5029446;28;20514;-67
2022/05/15 07:12:12;;;;;;;10.13;5.90;;;;;;;19.63;45.50;99886.22;5029228;28;20579;-67
2022/05/15 07:14:37;;;;;;;11.25;4.72;;;;;;;19.70;45.63;99892.78;5029607;28;20037;-67
2022/05/15 07:17:03;;;;;;;14.98;4.68;;;;;;;19.76;45.33;99886.88;5029083;28;20438;-67
2022/05/15 07:19:29;;;;;;;9.05;4.38;;;;;;;19.98;45.17;99893.06;5029388;28;20033;-67
2022/05/15 07:21:54;;;;;;;12.93;4.40;;;;;;;20.36;44.76;99879.00;5029144;28;20053;-67
2022/05/15 07:24:22;;;;;;;9.40;4.28;;;;;;;20.74;43.69;99878.28;5028772;28;20040;-66
2022/05/15 07:26:48;;;;;;;11.88;4.90;;;;;;;21.05;42.92;99874.66;5028140;28;20038;-67
2022/05/15 07:29:15;;;;;;;9.27;4.30;;;;;;;21.25;43.55;99878.19;5028124;28;20043;-67
2022/05/15 07:31:41;;;;;;;16.92;4.47;;;;;;;21.41;42.11;99882.00;5029237;28;20437;-66
2022/05/15 07:34:07;;;;;;;10.05;3.38;;;;;;;21.69;41.62;99875.91;5011251;28;20033;-66
2022/05/15 07:36:33;;;;;;;11.07;3.72;;;;;;;21.84;40.88;99882.50;5027691;28;20084;-66
2022/05/15 07:38:59;;;;;;;8.02;3.60;;;;;;;21.93;40.19;99873.56;5028260;28;20041;-66
2022/05/15 07:41:24;;;;;;;7.53;3.25;;;;;;;21.97;40.38;99876.78;5028250;28;20073;-68
2022/05/15 07:43:50;;;;;;;15.98;4.50;;;;;;;21.94;40.58;99875.25;5028598;28;20069;-67
2022/05/15 07:46:15;;;;;;;13.32;3.80;;;;;;;21.86;40.19;99885.88;5027936;28;20121;-68
2022/05/15 07:48:41;;;;;;;8.57;4.22;;;;;;;22.06;39.58;99884.81;5010747;28;20514;-67
2022/05/15 07:51:07;;;;;;;8.43;3.97;;;;;;;22.19;39.52;99878.25;5028065;28;20087;-67
2022/05/15 07:53:32;;;;;;;12.38;4.38;;;;;;;22.34;39.17;99871.44;5027908;28;20046;-67
2022/05/15 07:56:09;;;;;;;8.82;3.80;;;;;;;22.36;39.14;99877.50;5010204;28;20507;-67
2022/05/15 07:58:37;;;;;;;7.72;4.07;;;;;;;22.46;39.27;99870.22;5026722;28;20038;-68
2022/05/15 08:01:04;;;;;;;11.43;4.32;;;;;;;22.62;38.66;99868.72;5027159;28;20049;-68
2022/05/15 08:03:33;;;;;;;12.27;3.33;;;;;;;22.73;37.94;99871.22;5028087;28;20039;-68
2022/05/15 08:08:44;;;;;;;;;;;;;;;23.67;37.09;99853.72;5028384;28;20047;-70
2022/05/15 08:11:09;;;;;;;9.07;3.25;;;;;;;23.94;37.30;99855.41;5028266;28;20003;-68
2022/05/15 08:13:35;;;;;;;9.38;3.80;;;;;;;24.04;36.02;99853.44;5025927;28;20034;-67
2022/05/15 08:16:01;;;;;;;11.57;3.75;;;;;;;23.89;36.38;99852.38;5026360;28;20044;-67
2022/05/15 08:23:58;;;;;;;11.10;6.10;;;;;;;23.97;36.17;99850.56;5027768;28;20095;-68
2022/05/15 08:26:24;;;;;;;9.77;4.35;;;;;;;23.91;36.13;99855.75;5027319;28;20045;-66
2022/05/15 08:28:50;;;;;;;12.30;4.93;;;;;;;23.66;36.37;99839.41;5027805;28;20041;-66
2022/05/15 08:31:17;;;;;;;8.57;3.47;;;;;;;23.60;36.32;99850.81;5027839;28;20029;-66
2022/05/15 08:33:43;;;;;;;7.90;3.45;;;;;;;23.51;36.55;99846.38;5028689;28;20159;-67
2022/05/15 08:36:09;;;;;;;11.02;4.13;;;;;;;23.59;36.44;99843.75;5027078;28;20060;-67
2022/05/15 08:38:36;;;;;;;7.18;3.92;;;;;;;23.51;36.57;99841.00;5028253;28;20463;-67
2022/05/15 08:41:16;;;;;;;22.23;4.75;;;;;;;23.58;36.22;99836.69;5027383;28;20036;-68
2022/05/15 08:43:47;;;;;;;9.40;3.83;;;;;;;23.66;35.41;99838.56;5010362;28;20448;-67
2022/05/15 08:46:33;;;;;;;10.05;3.30;;;;;;;23.69;35.53;99832.88;5007314;28;20070;-66
2022/05/15 08:49:08;;;;;;;9.07;3.80;;;;;;;23.63;35.61;99831.66;5006765;28;20045;-66
2022/05/15 08:51:34;;;;;;;4.70;2.70;;;;;;;23.78;38.91;99832.78;5005349;28;20038;-52
2022/05/15 08:54:03;;;;;;;6.03;3.10;;;;;;;23.87;35.58;99835.53;5010569;28;20056;-53
2022/05/15 08:56:33;;;;;;;10.27;3.63;;;;;;;23.95;35.75;99831.03;5010309;28;20116;-53
2022/05/15 08:59:02;;;;;;;7.22;3.05;;;;;;;24.28;35.76;99827.63;5011899;28;20049;-51
2022/05/15 09:01:28;;;;;;;8.07;3.83;;;;;;;24.44;34.06;99827.69;5012233;28;20547;-52
2022/05/15 09:03:54;;;;;;;10.77;3.58;;;;;;;24.55;33.51;99827.41;5012639;28;20057;-48
2022/05/15 09:06:23;;;;;;;4.63;2.42;;;;;;;24.75;33.42;99830.66;5011372;28;20029;-51
2022/05/15 09:09:29;;;;;;;8.82;3.63;;;;;;;25.13;32.76;99827.47;5012597;28;20183;-54
2022/05/15 09:11:55;;;;;;;8.02;3.13;;;;;;;25.09;32.82;99829.69;5011494;28;20047;-51
2022/05/15 09:14:25;;;;;;;8.85;3.80;;;;;;;25.22;32.24;99823.78;5012243;28;20060;-52
2022/05/15 09:17:01;;;;;;;9.98;3.47;;;;;;;25.41;31.77;99819.91;5006907;28;20529;-69
2022/05/15 09:19:27;;;;;;;9.85;3.38;;;;;;;26.28;30.50;99820.00;5011838;28;20030;-69
2022/05/15 09:21:59;;;;;;;5.45;2.72;;;;;;;27.22;29.98;99815.38;5012255;28;20045;-69
2022/05/15 09:24:41;;;;;;;8.95;3.20;;;;;;;27.89;28.69;99821.84;5011410;28;20037;-68
2022/05/15 09:27:15;;;;;;;6.15;2.78;;;;;;;27.82;27.85;99817.16;5011342;28;20446;-68
2022/05/15 09:29:40;;;;;;;10.15;4.82;;;;;;;28.09;27.30;99822.13;5011121;28;20050;-70
2022/05/15 09:32:28;;;;;;;8.35;4.25;;;;;;;27.78;27.69;99817.69;5011699;28;20048;-70
2022/05/15 09:35:00;;;;;;;6.22;3.75;;;;;;;28.74;27.09;99807.69;5011974;28;20046;-68
2022/05/15 09:40:13;;;;;;;36.67;5.57;;;;;;;29.84;25.25;99795.44;5011803;28;20088;-68
2022/05/15 09:45:36;;;;;;;13.60;3.45;;;;;;;30.29;24.77;99797.78;4991972;28;20125;-70
2022/05/15 09:48:10;;;;;;;7.55;3.17;;;;;;;30.64;24.60;99795.78;5006231;28;20120;-71
2022/05/15 09:50:36;;;;;;;7.93;3.50;;;;;;;31.07;23.59;99798.19;5013988;28;20164;-69
2022/05/15 09:53:30;;;;;;;7.63;3.63;;;;;;;31.30;23.55;99789.56;5009675;28;20488;-72
2022/05/15 09:56:08;;;;;;;7.65;3.85;;;;;;;31.00;23.47;99786.44;5018748;28;20124;-70
2022/05/15 09:58:52;;;;;;;6.13;3.92;;;;;;;31.34;23.27;99793.56;5031054;28;20566;-71
2022/05/15 10:01:56;;;;;;;5.90;3.27;;;;;;;31.64;22.93;99783.06;5026563;28;20103;-69
2022/05/15 10:04:28;;;;;;;6.97;3.90;;;;;;;32.22;22.15;99787.72;5010323;28;20117;-70
2022/05/15 10:06:59;;;;;;;5.30;3.38;;;;;;;32.33;21.25;99786.19;5028791;28;20041;-69
2022/05/15 10:09:32;;;;;;;7.40;3.22;;;;;;;32.27;21.59;99787.91;5029571;28;20418;-71
2022/05/15 10:12:20;;;;;;;12.55;4.63;;;;;;;31.29;22.91;99779.72;5029448;28;20033;-69
2022/05/15 10:14:51;;;;;;;8.25;4.35;;;;;;;31.21;23.02;99778.06;5030404;28;20037;-70
2022/05/15 10:17:17;;;;;;;7.43;3.78;;;;;;;30.85;23.61;99772.19;5030117;28;20060;-72
2022/05/15 10:19:51;;;;;;;18.20;5.25;;;;;;;30.98;23.14;99759.41;5030209;28;20030;-70
2022/05/15 10:22:42;;;;;;;12.18;4.10;;;;;;;31.35;22.66;99762.53;5023111;28;20041;-70
2022/05/15 10:25:31;;;;;;;8.85;3.53;;;;;;;31.49;22.64;99755.22;5030125;28;20075;-68
2022/05/15 10:28:31;;;;;;;7.97;3.08;;;;;;;31.56;22.38;99750.59;5025386;28;20049;-69
2022/05/15 10:31:14;;;;;;;8.73;3.53;;;;;;;31.35;22.35;99764.41;5013958;28;20125;-69
2022/05/15 10:33:54;;;;;;;8.55;3.78;;;;;;;31.72;21.70;99759.34;5027575;28;20063;-69
2022/05/15 10:36:37;;;;;;;6.07;3.42;;;;;;;31.93;21.73;99752.78;5026050;28;20034;-69
2022/05/15 10:39:28;;;;;;;11.02;3.35;;;;;;;32.58;21.56;99750.81;5012729;28;20037;-69
2022/05/15 10:42:18;;;;;;;9.07;4.00;;;;;;;31.76;22.24;99738.78;5026016;28;20041;-69
2022/05/15 10:44:56;;;;;;;8.10;2.97;;;;;;;30.46;23.58;99747.38;5027695;28;20045;-70
2022/05/15 10:47:34;;;;;;;7.10;3.53;;;;;;;29.03;25.28;99738.00;5028645;28;20040;-69
2022/05/15 10:50:32;;;;;;;9.85;3.00;;;;;;;28.69;25.81;99747.72;5029957;28;20038;-68
2022/05/15 10:59:47;;;;;;;8.88;2.63;;;;;;;28.56;26.75;99734.06;5008064;28;20141;-68
2022/05/15 11:02:37;;;;;;;5.57;3.25;;;;;;;27.91;27.28;99730.34;4996170;28;20041;-69
2022/05/15 11:05:27;;;;;;;11.13;3.55;;;;;;;27.76;27.90;99731.22;5008514;28;20136;-68
2022/05/15 11:07:57;;;;;;;5.40;2.90;;;;;;;27.60;28.21;99728.69;4988987;28;20034;-70
2022/05/15 11:10:35;;;;;;;9.02;3.63;;;;;;;27.66;27.40;99725.22;4990450;28;20030;-69
2022/05/15 11:13:17;;;;;;;6.03;3.28;;;;;;;27.48;27.86;99722.88;4990680;28;20038;-68
2022/05/15 11:16:09;;;;;;;10.52;3.70;;;;;;;27.26;28.33;99718.41;4989792;28;20038;-68
2022/05/15 11:18:34;;;;;;;5.40;2.78;;;;;;;27.11;28.33;99724.59;4999248;28;20108;-68
2022/05/15 11:21:09;;;;;;;12.98;3.53;;;;;;;27.11;28.43;99721.06;5009340;28;20505;-70
2022/05/15 11:24:09;;;;;;;6.50;2.70;;;;;;;26.99;28.47;99726.06;5009152;28;20030;-68
2022/05/15 11:26:41;;;;;;;7.22;3.40;;;;;;;26.74;28.82;99729.00;4999483;28;20041;-67
2022/05/15 11:29:12;;;;;;;6.85;2.80;;;;;;;26.64;29.04;99719.47;5009464;28;20045;-70
2022/05/15 11:31:45;;;;;;;5.45;2.70;;;;;;;26.50;29.32;99711.06;5013420;28;20038;-68
2022/05/15 11:34:11;;;;;;;5.43;2.38;;;;;;;26.54;29.53;99703.47;5008307;28;20033;-69
2022/05/15 11:36:43;;;;;;;11.63;4.07;;;;;;;26.66;29.24;99698.47;5009053;28;20480;-70
2022/05/15 11:39:11;;;;;;;15.90;3.47;;;;;;;26.65;29.80;99702.19;4995982;28;20039;-68
2022/05/15 11:41:39;;;;;;;8.52;3.53;;;;;;;26.41;29.86;99693.25;5030306;28;20033;-70
2022/05/15 11:44:13;;;;;;;6.18;3.03;;;;;;;26.54;29.68;99692.66;5029653;28;20041;-69
2022/05/15 11:46:44;;;;;;;9.52;3.13;;;;;;;26.50;30.05;99697.53;5028785;28;20095;-69
2022/05/15 11:49:32;;;;;;;10.27;2.85;;;;;;;26.49;29.96;99693.16;5031239;28;20045;-70
2022/05/15 11:52:03;;;;;;;6.72;3.17;;;;;;;26.43;30.05;99682.22;5033255;28;20488;-70
2022/05/15 11:54:36;;;;;;;11.23;3.67;;;;;;;26.51;30.22;99679.47;5033609;28;20064;-69
2022/05/15 11:57:05;;;;;;;6.40;3.28;;;;;;;26.53;30.12;99674.72;5024593;28;20032;-69
2022/05/15 11:59:34;;;;;;;13.90;3.70;;;;;;;26.66;30.14;99684.97;5035281;28;20057;-69
2022/05/15 12:02:31;;;;;;;7.57;3.10;;;;;;;26.66;29.59;99672.28;5033424;28;20029;-70
2022/05/15 12:05:01;;;;;;;7.13;3.22;;;;;;;26.57;30.31;99667.94;5025967;28;20049;-68